Time;durP1;ratioP1;P1;durP2;ratioP2;P2;SDS_P1;SDS_P2;PMS_P1;PMS_P2;Temp;Humidity;BMP_temperature;BMP_pressure;BME280_temperature;BME280_humidity;BME280_pressure;Samples;Min_cycle;Max_cycle;Signal;HPM_P1;HPM_P2
2021/10/20 00:01:24;;;;;;;2.10;1.90;;;9.90;99.90;;;;;;5122480;28;20675;-82
2021/10/20 00:03:50;;;;;;;2.70;2.00;;;9.90;99.90;;;;;;5121372;28;20259;-82
2021/10/20 00:06:16;;;;;;;2.40;2.20;;;9.90;99.90;;;;;;5118780;28;20183;-81
2021/10/20 00:08:42;;;;;;;3.30;2.20;;;9.90;99.90;;;;;;5117903;28;20182;-82
2021/10/20 00:11:08;;;;;;;3.37;2.40;;;9.90;99.90;;;;;;5120982;28;20221;-82
2021/10/20 00:13:34;;;;;;;3.83;1.77;;;9.80;99.90;;;;;;5125306;28;20183;-81
2021/10/20 00:15:59;;;;;;;4.17;2.00;;;9.90;99.90;;;;;;5126583;28;20243;-82
2021/10/20 00:18:25;;;;;;;2.80;2.30;;;9.90;99.90;;;;;;5126511;28;20217;-82
2021/10/20 00:20:52;;;;;;;2.30;2.07;;;9.90;99.90;;;;;;5125832;28;20202;-82
2021/10/20 00:23:18;;;;;;;4.07;2.10;;;9.90;99.90;;;;;;5126431;28;20203;-82
2021/10/20 00:25:44;;;;;;;3.20;2.47;;;9.90;99.90;;;;;;5125414;28;20175;-82
2021/10/20 00:28:09;;;;;;;2.60;2.00;;;9.80;99.90;;;;;;5125741;28;20170;-82
2021/10/20 00:30:36;;;;;;;5.60;2.23;;;9.80;99.90;;;;;;5124039;28;20718;-81
2021/10/20 00:33:01;;;;;;;4.40;2.20;;;9.80;99.90;;;;;;5125048;28;20191;-81
2021/10/20 00:35:27;;;;;;;2.27;1.60;;;9.70;99.90;;;;;;5123752;28;20277;-81
2021/10/20 00:37:53;;;;;;;3.00;1.83;;;9.70;99.90;;;;;;5125069;28;20205;-82
2021/10/20 00:40:19;;;;;;;3.37;2.03;;;9.70;99.90;;;;;;5123534;28;20199;-81
2021/10/20 00:42:45;;;;;;;2.50;1.70;;;9.80;99.90;;;;;;5124253;28;20606;-81
2021/10/20 00:45:11;;;;;;;2.37;1.93;;;9.80;99.90;;;;;;5123449;28;20186;-81
2021/10/20 00:47:38;;;;;;;2.17;1.80;;;9.80;99.90;;;;;;5124113;28;20171;-81
2021/10/20 00:50:07;;;;;;;2.10;1.67;;;9.80;99.90;;;;;;5123867;28;20542;-82
2021/10/20 00:52:33;;;;;;;2.27;1.80;;;9.80;99.90;;;;;;5122609;28;20175;-82
2021/10/20 00:55:00;;;;;;;1.97;1.77;;;9.80;99.90;;;;;;5122615;28;20182;-82
2021/10/20 00:57:28;;;;;;;5.00;2.30;;;9.80;99.90;;;;;;5124079;28;20256;-82
2021/10/20 00:59:55;;;;;;;3.87;3.17;;;9.80;99.90;;;;;;5123718;28;20271;-82
2021/10/20 01:02:22;;;;;;;4.77;3.03;;;9.70;99.90;;;;;;5123262;28;20201;-82
2021/10/20 01:04:48;;;;;;;5.53;3.83;;;9.70;99.90;;;;;;5124078;28;20248;-82
2021/10/20 01:07:16;;;;;;;7.90;6.10;;;9.70;99.90;;;;;;5124414;28;20179;-82
2021/10/20 01:09:42;;;;;;;5.57;4.00;;;9.60;99.90;;;;;;5124010;28;20198;-82
2021/10/20 01:12:08;;;;;;;9.57;6.17;;;9.60;99.90;;;;;;5122178;28;20201;-82
2021/10/20 01:14:34;;;;;;;8.20;6.27;;;9.60;99.90;;;;;;5124426;28;20631;-82
2021/10/20 01:17:01;;;;;;;9.53;6.80;;;9.60;99.90;;;;;;5124420;28;20192;-82
2021/10/20 01:19:27;;;;;;;11.63;5.53;;;9.60;99.90;;;;;;5124596;28;20574;-82
2021/10/20 01:21:54;;;;;;;9.13;6.27;;;9.60;99.90;;;;;;5124920;28;20727;-82
2021/10/20 01:24:21;;;;;;;12.80;6.43;;;9.60;99.90;;;;;;5126659;28;20178;-82
2021/10/20 01:26:51;;;;;;;10.93;6.87;;;9.60;99.90;;;;;;5127684;28;20176;-82
2021/10/20 01:29:17;;;;;;;8.30;5.67;;;9.60;99.90;;;;;;5122558;28;20220;-82
2021/10/20 01:31:55;;;;;;;7.13;4.33;;;9.60;99.90;;;;;;5124591;28;20176;-82
2021/10/20 01:34:21;;;;;;;8.40;5.37;;;9.60;99.90;;;;;;5122627;28;20608;-82
2021/10/20 01:36:49;;;;;;;14.23;8.63;;;9.50;99.90;;;;;;5123762;28;20652;-82
2021/10/20 01:39:15;;;;;;;8.93;5.80;;;9.40;99.90;;;;;;5123841;28;20185;-82
2021/10/20 01:41:41;;;;;;;7.03;4.83;;;9.40;99.90;;;;;;5122236;28;20230;-82
2021/10/20 01:44:07;;;;;;;7.93;4.00;;;9.40;99.90;;;;;;5126208;28;20199;-82
2021/10/20 01:46:34;;;;;;;4.73;4.10;;;9.40;99.90;;;;;;5128171;28;20176;-81
2021/10/20 01:49:00;;;;;;;5.50;4.17;;;9.40;99.90;;;;;;5127889;28;20165;-82
2021/10/20 01:51:26;;;;;;;3.90;3.50;;;9.50;99.90;;;;;;5127194;28;20201;-81
2021/10/20 01:53:52;;;;;;;3.77;3.07;;;9.40;99.90;;;;;;5126117;28;20177;-81
2021/10/20 01:56:18;;;;;;;2.80;2.60;;;9.50;99.90;;;;;;5135579;28;20201;-81
2021/10/20 01:58:45;;;;;;;3.80;1.90;;;9.50;99.90;;;;;;5139343;28;20248;-81
2021/10/20 02:01:11;;;;;;;3.13;1.80;;;9.50;99.90;;;;;;5139823;28;20197;-81
2021/10/20 02:03:39;;;;;;;3.43;2.07;;;9.50;99.90;;;;;;5128890;28;20211;-81
2021/10/20 02:06:07;;;;;;;2.40;1.70;;;9.50;99.90;;;;;;5126074;28;20754;-83
2021/10/20 02:08:33;;;;;;;3.10;1.70;;;9.50;99.90;;;;;;5125535;28;20581;-81
2021/10/20 02:10:59;;;;;;;2.17;1.50;;;9.50;99.90;;;;;;5125038;28;20266;-82
2021/10/20 02:13:25;;;;;;;1.87;1.67;;;9.50;99.90;;;;;;5126260;28;20184;-82
2021/10/20 02:15:52;;;;;;;2.07;1.40;;;9.50;99.90;;;;;;5125757;28;20200;-82
2021/10/20 02:18:17;;;;;;;2.30;1.47;;;9.50;99.90;;;;;;5126142;28;20171;-81
2021/10/20 02:20:43;;;;;;;2.20;1.57;;;9.40;99.90;;;;;;5124426;28;20206;-82
2021/10/20 02:23:09;;;;;;;1.90;1.50;;;9.50;99.90;;;;;;5125739;28;20255;-81
2021/10/20 02:25:35;;;;;;;1.30;1.10;;;9.40;99.90;;;;;;5124055;28;20202;-82
2021/10/20 02:28:00;;;;;;;1.90;1.30;;;9.40;99.90;;;;;;5124418;28;20221;-82
2021/10/20 02:30:26;;;;;;;1.37;1.00;;;9.40;99.90;;;;;;5124776;28;20259;-82
2021/10/20 02:32:53;;;;;;;1.60;1.50;;;9.40;99.90;;;;;;5124759;28;20196;-82
2021/10/20 02:35:21;;;;;;;3.53;1.27;;;9.40;99.90;;;;;;5124517;28;20216;-82
2021/10/20 02:37:46;;;;;;;1.60;1.40;;;9.40;99.90;;;;;;5123866;28;20526;-82
2021/10/20 02:40:14;;;;;;;1.80;1.70;;;9.30;99.90;;;;;;5124252;28;20295;-82
2021/10/20 02:42:41;;;;;;;7.57;1.50;;;9.30;99.90;;;;;;5125038;28;20215;-82
2021/10/20 02:45:09;;;;;;;2.13;1.40;;;9.30;99.90;;;;;;5120596;28;20230;-82
2021/10/20 02:47:35;;;;;;;1.70;1.43;;;9.30;99.90;;;;;;5119847;28;20177;-81
2021/10/20 02:50:01;;;;;;;1.70;1.40;;;9.30;99.90;;;;;;5123870;28;20203;-82
2021/10/20 02:52:26;;;;;;;2.20;1.40;;;9.30;99.90;;;;;;5124368;28;20182;-81
2021/10/20 02:54:52;;;;;;;2.33;1.53;;;9.30;99.90;;;;;;5124224;28;20183;-81
2021/10/20 02:57:18;;;;;;;2.73;1.70;;;9.40;99.90;;;;;;5125053;28;20267;-81
2021/10/20 02:59:45;;;;;;;4.30;1.37;;;9.40;99.90;;;;;;5122610;28;20201;-81
2021/10/20 03:02:10;;;;;;;2.73;1.33;;;9.40;99.90;;;;;;5119575;28;20640;-81
2021/10/20 03:04:36;;;;;;;3.63;1.20;;;9.40;99.90;;;;;;5122793;28;20178;-82
2021/10/20 03:07:02;;;;;;;1.53;1.43;;;9.40;99.90;;;;;;5124233;28;20276;-81
2021/10/20 03:09:27;;;;;;;1.77;1.50;;;9.40;99.90;;;;;;5124037;28;20194;-81
2021/10/20 03:11:53;;;;;;;1.47;1.10;;;9.40;99.90;;;;;;5119410;28;20176;-81
2021/10/20 03:14:18;;;;;;;2.33;1.03;;;9.50;99.90;;;;;;5117375;28;20177;-82
2021/10/20 03:16:44;;;;;;;1.70;1.20;;;9.50;99.90;;;;;;5117255;28;20271;-81
2021/10/20 03:19:10;;;;;;;1.63;1.47;;;9.50;99.90;;;;;;5117059;28;20182;-81
2021/10/20 03:21:35;;;;;;;1.20;1.00;;;9.50;99.90;;;;;;5122749;28;20184;-82
2021/10/20 03:24:01;;;;;;;1.50;1.40;;;9.50;99.90;;;;;;5124240;28;20208;-82
2021/10/20 03:26:27;;;;;;;2.90;1.90;;;9.50;99.90;;;;;;5125334;28;20248;-82
2021/10/20 03:28:52;;;;;;;2.47;1.40;;;9.40;99.90;;;;;;5123785;28;20171;-82
2021/10/20 03:31:18;;;;;;;3.83;1.33;;;9.40;99.90;;;;;;5125459;28;20194;-82
2021/10/20 03:33:44;;;;;;;3.43;1.63;;;9.40;99.90;;;;;;5124501;28;20213;-82
2021/10/20 03:36:10;;;;;;;1.43;1.33;;;9.40;99.90;;;;;;5125929;28;20168;-82
2021/10/20 03:38:36;;;;;;;2.30;1.63;;;9.30;99.90;;;;;;5123808;28;20708;-81
2021/10/20 03:41:03;;;;;;;2.37;1.47;;;9.30;99.90;;;;;;5123333;28;20237;-82
2021/10/20 03:43:29;;;;;;;1.47;1.37;;;9.40;99.90;;;;;;5125153;28;20210;-82
2021/10/20 03:45:55;;;;;;;1.80;1.70;;;9.40;99.90;;;;;;5123867;28;20189;-82
2021/10/20 03:48:20;;;;;;;1.40;1.20;;;9.50;99.90;;;;;;5124894;28;20178;-82
2021/10/20 03:50:46;;;;;;;1.60;1.33;;;9.50;99.90;;;;;;5125397;28;20199;-83
2021/10/20 03:53:12;;;;;;;2.40;1.30;;;9.50;99.90;;;;;;5127243;28;20172;-82
2021/10/20 03:55:37;;;;;;;2.80;1.43;;;9.50;99.90;;;;;;5130042;28;20194;-81
2021/10/20 03:58:04;;;;;;;1.87;1.23;;;9.50;99.90;;;;;;5124866;28;20200;-82
2021/10/20 04:00:30;;;;;;;1.77;1.30;;;9.50;99.90;;;;;;5134065;28;20207;-81
2021/10/20 04:02:56;;;;;;;3.07;2.43;;;9.50;99.90;;;;;;5138190;28;20199;-81
2021/10/20 04:05:22;;;;;;;2.47;1.60;;;9.50;99.90;;;;;;5136624;28;20179;-81
2021/10/20 04:07:50;;;;;;;2.03;1.53;;;9.40;99.90;;;;;;5128793;28;20178;-82
2021/10/20 04:10:25;;;;;;;1.93;1.63;;;9.40;99.90;;;;;;5122814;28;20209;-81
2021/10/20 04:12:52;;;;;;;2.77;1.80;;;9.30;99.90;;;;;;5124404;28;20217;-82
2021/10/20 04:15:20;;;;;;;1.60;1.37;;;9.20;99.90;;;;;;5123658;28;20629;-82
2021/10/20 04:17:46;;;;;;;1.97;1.50;;;9.20;99.90;;;;;;5124482;28;20225;-82
2021/10/20 04:20:15;;;;;;;4.07;1.60;;;9.10;99.90;;;;;;5123998;28;20730;-81
2021/10/20 04:22:42;;;;;;;2.50;1.60;;;9.10;99.90;;;;;;5124248;28;20240;-81
2021/10/20 04:25:08;;;;;;;2.47;1.60;;;9.20;99.90;;;;;;5123936;28;20266;-82
2021/10/20 04:27:34;;;;;;;1.80;1.70;;;9.20;99.90;;;;;;5124330;28;20172;-81
2021/10/20 04:30:00;;;;;;;2.03;1.70;;;9.30;99.90;;;;;;5124006;28;20239;-82
2021/10/20 04:32:27;;;;;;;1.63;1.33;;;9.30;99.90;;;;;;5123534;28;20188;-82
2021/10/20 04:34:53;;;;;;;1.73;1.30;;;9.30;99.90;;;;;;5122109;28;20179;-82
2021/10/20 04:37:24;;;;;;;3.87;1.70;;;9.30;99.90;;;;;;5122743;28;20182;-82
2021/10/20 04:39:53;;;;;;;2.07;1.60;;;9.40;99.90;;;;;;5123463;28;20222;-82
2021/10/20 04:42:20;;;;;;;3.17;1.60;;;9.40;99.90;;;;;;5123665;28;20273;-82
2021/10/20 04:44:46;;;;;;;2.90;1.57;;;9.40;99.90;;;;;;5122690;28;20201;-81
2021/10/20 04:47:12;;;;;;;1.60;1.50;;;9.40;99.90;;;;;;5124326;28;20552;-82
2021/10/20 04:49:38;;;;;;;2.23;1.67;;;9.40;99.90;;;;;;5122379;28;20205;-81
2021/10/20 04:52:05;;;;;;;3.00;1.67;;;9.40;99.90;;;;;;5123201;28;20235;-81
2021/10/20 04:54:30;;;;;;;1.80;1.40;;;9.40;99.90;;;;;;5122529;28;20594;-82
2021/10/20 04:56:56;;;;;;;1.70;1.60;;;9.40;99.90;;;;;;5123746;28;20171;-82
2021/10/20 04:59:23;;;;;;;1.50;1.30;;;9.40;99.90;;;;;;5123952;28;20232;-81
2021/10/20 05:01:49;;;;;;;1.77;1.60;;;9.40;99.90;;;;;;5123644;28;20280;-82
2021/10/20 05:04:14;;;;;;;1.60;1.50;;;9.30;99.90;;;;;;5123255;28;20179;-81
2021/10/20 05:06:40;;;;;;;2.07;1.40;;;9.20;99.90;;;;;;5122398;28;20179;-81
2021/10/20 05:09:06;;;;;;;1.43;1.33;;;9.10;99.90;;;;;;5123181;28;20200;-82
2021/10/20 05:11:31;;;;;;;2.33;1.40;;;9.10;99.90;;;;;;5123185;28;20182;-81
2021/10/20 05:13:57;;;;;;;1.83;1.50;;;9.00;99.90;;;;;;5121418;28;20168;-81
2021/10/20 05:16:23;;;;;;;2.40;1.33;;;9.00;99.90;;;;;;5140318;28;20171;-82
2021/10/20 05:18:48;;;;;;;1.50;1.20;;;9.00;99.90;;;;;;5144763;27;20177;-81
2021/10/20 05:21:14;;;;;;;1.57;1.47;;;9.00;99.90;;;;;;5146622;27;20190;-82
2021/10/20 05:23:39;;;;;;;2.53;1.70;;;9.00;99.90;;;;;;5143508;27;20205;-81
2021/10/20 05:26:05;;;;;;;2.73;1.40;;;9.00;99.90;;;;;;5143936;27;20173;-82
2021/10/20 05:28:31;;;;;;;1.93;1.77;;;9.00;99.90;;;;;;5145652;27;20201;-82
2021/10/20 05:30:56;;;;;;;2.53;2.07;;;9.00;99.90;;;;;;5144841;27;20621;-82
2021/10/20 05:33:22;;;;;;;4.17;3.23;;;9.00;99.90;;;;;;5144101;27;20295;-82
2021/10/20 05:35:48;;;;;;;3.47;2.30;;;9.00;99.90;;;;;;5145976;27;20216;-82
2021/10/20 05:38:13;;;;;;;3.23;2.40;;;9.00;99.90;;;;;;5145637;27;20212;-82
2021/10/20 05:40:39;;;;;;;4.83;2.87;;;8.90;99.90;;;;;;5146835;27;20204;-82
2021/10/20 05:43:05;;;;;;;4.93;2.90;;;8.90;99.90;;;;;;5145951;27;20209;-82
2021/10/20 05:45:30;;;;;;;4.07;2.10;;;8.80;99.90;;;;;;5145167;27;20177;-82
2021/10/20 05:47:56;;;;;;;4.47;4.00;;;8.80;99.90;;;;;;5148537;27;20173;-82
2021/10/20 05:50:22;;;;;;;5.93;3.13;;;8.70;99.90;;;;;;5146611;27;20198;-82
2021/10/20 05:52:48;;;;;;;4.37;2.10;;;8.70;99.90;;;;;;5148134;27;20169;-82
2021/10/20 05:55:13;;;;;;;10.70;6.53;;;8.60;99.90;;;;;;5140983;27;20259;-82
2021/10/20 05:57:39;;;;;;;5.40;2.70;;;8.70;99.90;;;;;;5145939;27;20254;-82
2021/10/20 06:00:08;;;;;;;4.93;2.73;;;8.70;99.90;;;;;;5147248;27;20255;-82
2021/10/20 06:02:34;;;;;;;9.17;4.07;;;8.70;99.90;;;;;;5149032;27;20222;-82
2021/10/20 06:05:00;;;;;;;8.47;4.43;;;8.70;99.90;;;;;;5146383;27;20171;-82
2021/10/20 06:07:25;;;;;;;17.57;13.17;;;8.70;99.90;;;;;;5148231;27;20199;-82
2021/10/20 06:09:51;;;;;;;6.07;4.10;;;8.70;99.90;;;;;;5157994;27;20206;-82
2021/10/20 06:12:16;;;;;;;4.23;3.00;;;8.70;99.90;;;;;;5159371;27;20179;-81
2021/10/20 06:14:42;;;;;;;2.83;2.23;;;8.70;99.90;;;;;;5157591;27;20244;-82
2021/10/20 06:17:08;;;;;;;3.80;2.37;;;8.60;99.90;;;;;;5148191;27;20177;-83
2021/10/20 06:19:33;;;;;;;3.77;2.63;;;8.60;99.90;;;;;;5148199;27;20584;-83
2021/10/20 06:21:59;;;;;;;2.93;2.37;;;8.70;99.90;;;;;;5152322;27;20254;-83
2021/10/20 06:24:25;;;;;;;5.13;3.10;;;8.70;99.90;;;;;;5139537;27;20173;-83
2021/10/20 06:26:50;;;;;;;4.03;3.63;;;8.70;99.90;;;;;;5138661;27;20182;-82
2021/10/20 06:29:18;;;;;;;3.93;2.30;;;8.70;99.90;;;;;;5137434;27;20209;-82
2021/10/20 06:31:45;;;;;;;2.83;2.53;;;8.80;99.90;;;;;;5137035;27;20185;-81
2021/10/20 06:34:11;;;;;;;3.77;2.40;;;8.80;99.90;;;;;;5143763;27;20186;-82
2021/10/20 06:36:37;;;;;;;8.60;2.30;;;8.80;99.90;;;;;;5144019;27;20588;-82
2021/10/20 06:39:04;;;;;;;4.70;2.20;;;8.90;99.90;;;;;;5144198;27;20177;-82
2021/10/20 06:41:30;;;;;;;4.27;1.90;;;8.90;99.90;;;;;;5143280;27;20173;-82
2021/10/20 06:43:55;;;;;;;2.17;1.70;;;9.00;99.90;;;;;;5144403;27;20168;-83
2021/10/20 06:46:21;;;;;;;3.07;1.70;;;9.00;99.90;;;;;;5142951;27;20546;-82
2021/10/20 06:48:47;;;;;;;4.03;1.70;;;9.10;99.90;;;;;;5143202;27;20232;-82
2021/10/20 06:51:13;;;;;;;8.00;2.40;;;9.10;99.90;;;;;;5143297;27;20297;-82
2021/10/20 06:53:39;;;;;;;3.53;2.07;;;9.20;99.90;;;;;;5143226;27;20210;-82
2021/10/20 06:56:07;;;;;;;2.63;1.73;;;9.30;99.90;;;;;;5143511;27;20271;-82
2021/10/20 06:58:34;;;;;;;3.80;1.83;;;9.50;99.90;;;;;;5145523;27;20193;-82
2021/10/20 07:00:59;;;;;;;2.00;1.80;;;9.60;99.90;;;;;;5143977;27;20210;-82
2021/10/20 07:03:25;;;;;;;1.97;1.70;;;9.70;99.90;;;;;;5144134;27;20197;-82
2021/10/20 07:05:51;;;;;;;2.63;1.70;;;9.90;99.90;;;;;;5143673;27;20173;-82
2021/10/20 07:08:16;;;;;;;2.30;1.40;;;10.10;99.90;;;;;;5145914;27;20179;-82
2021/10/20 07:10:42;;;;;;;3.00;1.53;;;10.20;99.90;;;;;;5144127;27;20291;-82
2021/10/20 07:13:08;;;;;;;2.73;1.37;;;10.30;99.90;;;;;;5144495;27;20180;-82
2021/10/20 07:15:34;;;;;;;1.50;1.40;;;10.50;99.90;;;;;;5144485;27;20185;-82
2021/10/20 07:18:00;;;;;;;1.53;1.17;;;10.70;99.90;;;;;;5144449;27;20171;-82
2021/10/20 07:20:26;;;;;;;2.50;1.40;;;10.80;99.90;;;;;;5145510;27;20191;-83
2021/10/20 07:22:52;;;;;;;2.33;1.37;;;11.00;99.90;;;;;;5151154;27;20203;-82
2021/10/20 07:25:18;;;;;;;2.27;1.50;;;11.10;99.90;;;;;;5143837;27;20194;-82
2021/10/20 07:27:45;;;;;;;2.17;1.57;;;11.20;99.90;;;;;;5143667;27;20264;-82
2021/10/20 07:30:12;;;;;;;2.37;1.40;;;11.40;99.90;;;;;;5143126;27;20201;-83
2021/10/20 07:32:39;;;;;;;2.37;1.40;;;11.50;99.90;;;;;;5143300;27;20197;-82
2021/10/20 07:35:07;;;;;;;1.90;1.33;;;11.60;99.90;;;;;;5144478;27;20167;-82
2021/10/20 07:37:32;;;;;;;2.50;1.43;;;11.80;99.90;;;;;;5145129;27;20234;-82
2021/10/20 07:39:58;;;;;;;4.13;1.57;;;11.90;99.90;;;;;;5143590;27;20229;-82
2021/10/20 07:42:24;;;;;;;2.60;1.53;;;12.10;99.90;;;;;;5142643;27;20195;-82
2021/10/20 07:44:50;;;;;;;1.70;1.20;;;12.40;99.90;;;;;;5143310;27;20170;-83
2021/10/20 07:47:17;;;;;;;2.67;1.40;;;12.70;99.90;;;;;;5143995;27;20208;-82
2021/10/20 07:49:42;;;;;;;3.50;2.03;;;13.00;99.90;;;;;;5143065;27;20223;-82
2021/10/20 07:52:08;;;;;;;5.23;3.17;;;13.30;99.90;;;;;;5146065;27;20174;-82
2021/10/20 07:54:34;;;;;;;16.93;8.57;;;13.70;99.90;;;;;;5143342;27;20181;-83
2021/10/20 07:57:00;;;;;;;7.93;3.40;;;14.00;99.90;;;;;;5142739;27;20200;-82
2021/10/20 07:59:25;;;;;;;5.90;2.93;;;14.10;99.90;;;;;;5143671;27;20195;-83
2021/10/20 08:01:51;;;;;;;7.47;4.57;;;14.20;99.90;;;;;;5144026;27;20234;-83
2021/10/20 08:04:17;;;;;;;9.47;5.10;;;14.60;99.90;;;;;;5144675;27;20167;-83
2021/10/20 08:06:44;;;;;;;10.03;6.17;;;15.20;99.90;;;;;;5145548;27;20227;-83
2021/10/20 08:09:09;;;;;;;13.07;6.97;;;16.00;99.90;;;;;;5145732;27;20167;-83
2021/10/20 08:11:35;;;;;;;8.97;5.90;;;16.10;99.90;;;;;;5146561;27;20170;-83
2021/10/20 08:14:03;;;;;;;18.80;12.47;;;16.70;99.90;;;;;;5146606;27;20199;-83
2021/10/20 08:16:30;;;;;;;7.53;5.13;;;17.40;99.90;;;;;;5146561;27;20178;-83
2021/10/20 08:18:55;;;;;;;22.73;15.00;;;17.70;99.90;;;;;;5155133;27;20194;-83
2021/10/20 08:21:21;;;;;;;17.87;10.60;;;18.10;99.90;;;;;;5154116;27;20574;-83
2021/10/20 08:23:47;;;;;;;11.50;5.83;;;18.40;99.90;;;;;;5142669;27;20249;-83
2021/10/20 08:26:12;;;;;;;11.13;7.27;;;18.40;99.90;;;;;;5144873;27;20180;-83
2021/10/20 08:28:38;;;;;;;5.40;4.00;;;18.70;99.90;;;;;;5142894;27;20176;-82
2021/10/20 08:31:04;;;;;;;15.10;8.47;;;18.90;99.90;;;;;;5140012;27;20250;-83
2021/10/20 08:33:30;;;;;;;3.37;2.37;;;19.20;99.90;;;;;;5142388;27;20197;-83
2021/10/20 08:35:56;;;;;;;5.57;5.00;;;19.30;99.90;;;;;;5144617;27;20215;-84
2021/10/20 08:38:21;;;;;;;3.53;2.57;;;19.50;99.90;;;;;;5144629;27;20304;-83
2021/10/20 08:40:47;;;;;;;2.60;2.30;;;19.50;99.90;;;;;;5147007;27;20690;-81
2021/10/20 08:43:17;;;;;;;3.33;2.10;;;19.40;99.90;;;;;;5147316;28;20209;-81
2021/10/20 08:45:46;;;;;;;3.60;1.80;;;19.40;99.90;;;;;;5144485;28;20175;-81
2021/10/20 08:48:13;;;;;;;4.03;1.80;;;19.50;99.90;;;;;;5145842;27;20221;-81
2021/10/20 08:50:39;;;;;;;3.67;1.90;;;19.50;99.90;;;;;;5146707;28;20196;-81
2021/10/20 08:53:07;;;;;;;3.93;1.70;;;19.50;98.60;;;;;;5146282;27;20172;-81
2021/10/20 08:55:33;;;;;;;3.80;1.80;;;19.70;99.30;;;;;;5148217;27;20179;-81
2021/10/20 08:58:00;;;;;;;2.90;1.53;;;20.00;98.70;;;;;;5146693;27;20178;-81
2021/10/20 09:00:27;;;;;;;2.37;1.77;;;20.00;97.30;;;;;;5148416;27;20193;-81
2021/10/20 09:02:54;;;;;;;2.93;2.20;;;19.90;96.80;;;;;;5146674;27;20204;-82
2021/10/20 09:05:23;;;;;;;2.37;1.97;;;19.80;96.60;;;;;;5147873;27;20208;-81
2021/10/20 09:07:51;;;;;;;2.73;1.90;;;20.00;96.10;;;;;;5147407;27;20175;-81
2021/10/20 09:10:17;;;;;;;5.30;2.10;;;20.00;96.90;;;;;;5148462;27;20265;-81
2021/10/20 09:12:44;;;;;;;2.33;1.60;;;20.40;96.70;;;;;;5146883;27;20207;-81
2021/10/20 09:15:21;;;;;;;4.30;1.80;;;20.80;97.20;;;;;;5146211;27;20240;-81
2021/10/20 09:17:50;;;;;;;4.37;2.73;;;21.00;94.80;;;;;;5146584;27;20244;-81
2021/10/20 09:20:28;;;;;;;6.53;2.23;;;21.10;96.00;;;;;;5144009;27;20251;-81
2021/10/20 09:23:12;;;;;;;2.30;2.00;;;21.30;94.50;;;;;;5144064;27;20200;-81
2021/10/20 09:25:40;;;;;;;2.33;2.03;;;21.20;93.80;;;;;;5143988;27;20179;-80
2021/10/20 09:28:09;;;;;;;4.03;2.23;;;20.80;94.10;;;;;;5142126;27;20537;-80
2021/10/20 09:30:37;;;;;;;2.90;1.80;;;20.50;94.20;;;;;;5142260;27;20196;-80
2021/10/20 09:33:05;;;;;;;3.30;1.70;;;20.70;94.00;;;;;;5142571;27;20188;-80
2021/10/20 09:35:31;;;;;;;1.93;1.83;;;20.70;94.00;;;;;;5139429;27;20297;-81
2021/10/20 09:38:01;;;;;;;3.10;2.00;;;21.10;93.30;;;;;;5140136;27;20585;-80
2021/10/20 09:40:40;;;;;;;3.87;1.90;;;21.10;95.00;;;;;;5140043;27;20196;-81
2021/10/20 09:43:07;;;;;;;2.90;2.00;;;21.20;93.20;;;;;;5149581;27;20272;-80
2021/10/20 09:45:39;;;;;;;3.13;2.00;;;21.30;93.00;;;;;;5149614;27;20198;-82
2021/10/20 09:48:17;;;;;;;2.53;1.50;;;21.60;93.60;;;;;;5149232;27;20532;-82
2021/10/20 09:51:07;;;;;;;4.10;2.00;;;22.20;94.80;;;;;;5146894;27;20199;-82
2021/10/20 09:53:35;;;;;;;2.73;1.70;;;22.00;91.10;;;;;;5147674;27;20177;-81
2021/10/20 09:56:27;;;;;;;3.30;2.17;;;21.90;90.70;;;;;;5147314;27;20265;-81
2021/10/20 09:58:54;;;;;;;2.53;1.70;;;21.70;90.60;;;;;;5148667;27;20246;-81
2021/10/20 10:01:21;;;;;;;2.47;1.93;;;21.60;90.70;;;;;;5147604;27;20202;-81
2021/10/20 10:03:48;;;;;;;4.77;1.73;;;21.60;90.70;;;;;;5147307;27;20202;-82
2021/10/20 10:06:14;;;;;;;4.27;2.30;;;21.40;90.00;;;;;;5147599;27;20175;-81
2021/10/20 10:08:40;;;;;;;2.43;1.60;;;21.60;90.50;;;;;;5148216;27;20521;-81
2021/10/20 10:11:06;;;;;;;2.83;1.87;;;22.00;90.50;;;;;;5148795;27;20605;-81
2021/10/20 10:13:38;;;;;;;4.30;1.90;;;22.50;89.90;;;;;;5148677;27;20636;-81
2021/10/20 10:16:05;;;;;;;3.57;1.90;;;22.70;88.50;;;;;;5148556;27;20192;-81
2021/10/20 10:18:35;;;;;;;3.77;2.20;;;22.50;87.30;;;;;;5150422;27;20183;-81
2021/10/20 10:21:01;;;;;;;4.53;3.13;;;22.10;87.70;;;;;;5155676;27;20217;-80
2021/10/20 10:23:28;;;;;;;2.10;1.73;;;21.90;88.40;;;;;;5155554;27;20199;-79
2021/10/20 10:26:03;;;;;;;6.23;1.70;;;21.60;88.10;;;;;;5156218;27;20170;-80
2021/10/20 10:28:34;;;;;;;2.67;1.80;;;21.10;89.80;;;;;;5155504;27;20170;-80
2021/10/20 10:31:11;;;;;;;1.90;1.60;;;21.10;90.00;;;;;;5154475;27;20186;-80
2021/10/20 10:33:53;;;;;;;2.57;1.80;;;21.40;88.00;;;;;;5156392;27;20186;-81
2021/10/20 10:36:23;;;;;;;3.90;2.40;;;21.60;88.90;;;;;;5156856;27;20213;-80
2021/10/20 10:38:58;;;;;;;2.20;1.80;;;21.90;88.40;;;;;;5157766;27;20189;-80
2021/10/20 10:41:32;;;;;;;2.50;2.00;;;22.40;88.90;;;;;;5156726;27;20246;-80
2021/10/20 10:44:03;;;;;;;2.00;1.60;;;22.30;88.50;;;;;;5148064;27;20193;-81
2021/10/20 10:46:37;;;;;;;3.53;2.23;;;22.50;88.70;;;;;;5148688;27;20174;-82
2021/10/20 10:49:20;;;;;;;2.10;1.90;;;22.30;87.90;;;;;;5148905;27;20190;-81
2021/10/20 10:52:17;;;;;;;2.53;1.97;;;22.10;90.00;;;;;;5147499;27;20561;-81
2021/10/20 10:55:07;;;;;;;6.60;2.60;;;21.90;89.10;;;;;;5146564;27;20176;-82
2021/10/20 10:57:51;;;;;;;4.20;2.20;;;22.10;90.60;;;;;;5145611;27;20171;-83
2021/10/20 11:00:20;;;;;;;4.00;2.10;;;22.80;89.50;;;;;;5145231;27;20268;-83
2021/10/20 11:02:55;;;;;;;2.40;2.20;;;22.80;89.60;;;;;;5145785;27;20266;-81
2021/10/20 11:05:47;;;;;;;2.40;1.90;;;22.90;88.80;;;;;;5146132;27;20230;-81
2021/10/20 11:08:13;;;;;;;3.20;1.93;;;23.30;89.90;;;;;;5148202;27;20163;-80
2021/10/20 11:10:40;;;;;;;2.40;2.20;;;23.00;86.80;;;;;;5146853;27;20192;-81
2021/10/20 11:13:07;;;;;;;2.57;2.20;;;22.50;89.10;;;;;;5147114;27;20188;-81
2021/10/20 11:15:33;;;;;;;2.23;1.93;;;22.50;90.00;;;;;;5145779;27;20239;-82
2021/10/20 11:18:00;;;;;;;2.70;2.13;;;23.30;88.00;;;;;;5148237;27;20532;-83
2021/10/20 11:20:31;;;;;;;3.30;2.20;;;23.30;87.50;;;;;;5148888;27;20610;-80
2021/10/20 11:23:06;;;;;;;4.30;2.70;;;23.30;88.30;;;;;;5146359;27;20269;-81
2021/10/20 11:25:33;;;;;;;3.40;2.07;;;23.40;85.20;;;;;;5146872;27;20169;-81
2021/10/20 11:27:59;;;;;;;5.57;2.07;;;23.60;85.40;;;;;;5146605;27;20171;-81
2021/10/20 11:30:27;;;;;;;2.30;2.07;;;23.80;86.40;;;;;;5147076;27;20660;-83
2021/10/20 11:32:55;;;;;;;4.60;2.40;;;23.40;85.80;;;;;;5145597;27;20650;-80
2021/10/20 11:35:29;;;;;;;3.87;2.60;;;23.60;85.30;;;;;;5146211;27;20189;-81
2021/10/20 11:37:57;;;;;;;2.87;2.57;;;24.00;83.20;;;;;;5146469;27;20515;-81
2021/10/20 11:40:28;;;;;;;6.43;1.83;;;24.00;84.80;;;;;;5140339;27;20296;-81
2021/10/20 11:42:53;;;;;;;3.00;2.30;;;24.20;85.70;;;;;;5142779;27;20212;-81
2021/10/20 11:45:19;;;;;;;2.80;2.07;;;24.20;82.10;;;;;;5142756;27;20178;-80
2021/10/20 11:47:45;;;;;;;5.20;2.17;;;24.60;82.30;;;;;;5144356;27;20194;-81
2021/10/20 11:50:14;;;;;;;2.43;1.93;;;24.10;84.20;;;;;;5143231;27;20187;-81
2021/10/20 11:52:40;;;;;;;2.43;2.07;;;23.30;81.20;;;;;;5144008;27;20174;-81
2021/10/20 11:55:07;;;;;;;3.33;2.30;;;22.20;84.20;;;;;;5142896;27;20178;-80
2021/10/20 11:57:33;;;;;;;2.30;2.10;;;22.40;85.50;;;;;;5144442;27;20639;-80
2021/10/20 11:59:59;;;;;;;3.03;2.03;;;22.50;84.70;;;;;;5144509;27;20226;-81
2021/10/20 12:02:34;;;;;;;3.30;2.03;;;22.60;84.50;;;;;;5143516;27;20208;-81
2021/10/20 12:05:00;;;;;;;2.97;2.10;;;22.80;84.50;;;;;;5142266;27;20173;-80
2021/10/20 12:07:30;;;;;;;2.73;2.53;;;22.60;84.50;;;;;;5143841;27;20174;-81
2021/10/20 12:09:58;;;;;;;4.03;2.00;;;21.90;86.00;;;;;;5144644;27;20205;-81
2021/10/20 12:12:25;;;;;;;5.17;3.03;;;21.50;88.80;;;;;;5144724;27;20662;-82
2021/10/20 12:14:54;;;;;;;4.67;2.80;;;21.10;87.60;;;;;;5142660;27;20183;-82
2021/10/20 12:17:20;;;;;;;3.70;2.40;;;20.70;89.30;;;;;;5143476;27;20178;-83
2021/10/20 12:19:46;;;;;;;4.83;2.30;;;20.40;90.70;;;;;;5143488;27;20195;-83
2021/10/20 12:22:14;;;;;;;3.37;2.53;;;20.40;91.20;;;;;;5144069;27;20195;-83
2021/10/20 12:24:49;;;;;;;3.77;2.83;;;20.50;91.00;;;;;;5144818;27;20164;-83
2021/10/20 12:27:16;;;;;;;4.20;2.40;;;20.30;90.80;;;;;;5142857;27;20182;-83
2021/10/20 12:29:44;;;;;;;2.77;2.43;;;20.00;91.70;;;;;;5143706;27;20262;-83
2021/10/20 12:32:21;;;;;;;3.90;2.63;;;19.80;91.70;;;;;;5146404;27;20190;-82
2021/10/20 12:35:05;;;;;;;2.87;2.30;;;19.60;92.10;;;;;;5142165;27;20277;-83
2021/10/20 12:37:34;;;;;;;3.57;2.00;;;19.40;92.50;;;;;;5136307;27;20205;-83
2021/10/20 12:40:12;;;;;;;3.33;2.83;;;19.20;92.30;;;;;;5136358;27;20190;-82
2021/10/20 12:42:43;;;;;;;6.33;2.93;;;18.90;92.40;;;;;;5139110;27;20269;-81
2021/10/20 12:45:10;;;;;;;4.63;2.53;;;18.70;92.50;;;;;;5141899;28;20165;-83
2021/10/20 12:47:45;;;;;;;3.43;2.30;;;18.40;93.40;;;;;;5142810;28;20580;-81
2021/10/20 12:50:13;;;;;;;3.13;2.50;;;18.50;93.60;;;;;;5142677;27;20192;-83
2021/10/20 12:52:40;;;;;;;4.30;3.00;;;18.60;93.50;;;;;;5143801;28;20165;-81
2021/10/20 12:55:09;;;;;;;4.07;2.23;;;18.80;93.40;;;;;;5141962;28;20177;-81